Skip Navigation LinksHome page > Weather > Current weather Skip Navigation Links

Current Weather

Boryspil, Kiev, Ukraine

For information only: do not use for flight planning or navigation.
Latest weather
Observation time Monday, October 22, 2018 11:30 AM EEST
Local time Monday, October 22, 2018 12:03 PM EEST
Flight conditions Visual Meteorological Conditions
Winds
Wind direction Northeast (50°)
Winds variable from 10° to 80°
Wind speed 9 mph
Visibility 6.2 mi.
Sky condition
Ceiling unlimited
Sky clear
Temperature 48°F
Dewpoint 39°F
Altimeter 30.27 in.Hg
Derived measurements
Relative humidity 71%
Wind chill 44°F
Density altitude -448 ft.
Remarks
Ceiling and visibility OK.
No significant changes expected in the next two hours.
METAR UKKK 220830Z 05004MPS 010V080 CAVOK 09/04 Q1025 R26/70D NOSIG

Settings

Location code

InnerDrive.Weather 4.0.6770.0 Release CLR 4.0.30319.42000
Copyright ©2018 Inner Drive Technology. All rights reserved. Portions Copyright ©1986-2018 David Braverman.

Find weather

Site navigation


Skip Navigation Links

Place info

Page info

PayPal - The safer, easier way to pay online!

Return home.

Copyright ©2018 Inner Drive Technology. Purveyors of fine, hand-crafted computer software. Page printed 2018-10-22T09:03:55 UTC.